createdAt,value
2023-04-15T01:15:32.467Z,7.82
2023-04-15T05:58:42.416Z,4.20
2023-04-15T06:01:30.574Z,7.32
2023-04-15T06:04:44.084Z,6.88
2023-04-15T06:07:31.457Z,7.70
2023-04-15T06:10:18.855Z,4.63
2023-04-15T06:13:06.280Z,5.28
2023-04-15T06:15:54.988Z,3.95
2023-04-15T06:18:42.764Z,6.95
2023-04-15T06:21:31.196Z,5.30
2023-04-15T06:24:18.445Z,9.80
2023-04-15T06:27:07.672Z,7.18
2023-04-15T06:29:55.194Z,5.13
2023-04-15T06:32:42.384Z,5.10
2023-04-15T06:35:29.581Z,5.38
2023-04-15T06:38:16.902Z,5.13
2023-04-15T06:41:05.519Z,6.45
2023-04-15T06:43:53.005Z,7.40
2023-04-15T06:46:40.712Z,5.80
2023-04-15T06:49:28.255Z,5.93
2023-04-15T06:52:16.801Z,3.75
2023-04-15T06:55:04.379Z,4.82
2023-04-15T06:57:52.028Z,9.88
2023-04-15T07:00:39.357Z,6.20
2023-04-15T07:03:27.182Z,7.32
2023-04-15T07:06:14.509Z,5.97
2023-04-15T07:09:03.497Z,5.22
2023-04-15T07:11:51.561Z,3.63
2023-04-15T07:14:38.847Z,6.20
2023-04-15T07:17:26.466Z,4.47
2023-04-15T07:20:14.152Z,4.78
2023-04-15T07:23:01.668Z,5.47
2023-04-15T07:26:18.754Z,4.97
2023-04-15T07:29:06.077Z,6.32
2023-04-15T07:31:53.504Z,4.40
2023-04-15T07:34:41.577Z,4.43
2023-04-15T07:37:29.032Z,5.03
2023-04-15T07:40:16.528Z,4.18
2023-04-15T07:43:03.763Z,7.00
2023-04-15T07:45:51.004Z,4.65
2023-04-15T07:48:38.242Z,4.95
2023-04-15T07:51:25.677Z,4.63
2023-04-15T07:54:14.131Z,3.85
2023-04-15T07:57:01.559Z,3.03
2023-04-15T08:36:23.550Z,3.83
2023-04-15T08:39:12.014Z,4.25
2023-04-15T08:42:05.872Z,5.72
2023-04-15T09:57:56.302Z,8.02
2023-04-15T11:25:48.361Z,10.18
2023-04-15T11:28:49.558Z,9.32
2023-04-15T11:38:15.996Z,7.40
2023-04-15T12:04:48.322Z,8.32
2023-04-15T12:12:50.575Z,4.97
2023-04-15T12:21:53.275Z,3.33
2023-04-15T12:24:49.858Z,4.25
2023-04-15T13:01:49.648Z,5.28
2023-04-15T13:05:02.634Z,3.90
2023-04-15T13:08:11.078Z,3.67
2023-04-15T13:11:05.021Z,3.53
2023-04-15T14:09:01.301Z,2.42
2023-04-15T14:13:00.929Z,3.08
2023-04-15T14:17:04.507Z,2.83
2023-04-15T14:20:54.545Z,3.63
2023-04-15T14:30:28.771Z,2.28
2023-04-15T14:33:18.620Z,3.33
2023-04-15T14:36:09.928Z,2.50
2023-04-15T14:39:11.308Z,2.08
2023-04-15T14:42:04.630Z,3.00
2023-04-15T14:44:51.960Z,3.13
2023-04-15T14:47:39.331Z,2.60
2023-04-15T14:50:26.599Z,2.53
2023-04-15T14:53:18.792Z,3.70
2023-04-15T14:56:07.015Z,3.78
2023-04-15T14:58:56.464Z,3.05
2023-04-15T15:01:49.390Z,3.05
2023-04-15T15:04:53.620Z,3.40
2023-04-15T16:08:54.643Z,6.10
2023-04-15T16:11:42.045Z,8.57
2023-04-15T16:21:11.628Z,9.13
2023-04-15T16:23:59.285Z,7.38
2023-04-15T17:18:10.083Z,5.70
2023-04-15T17:21:29.258Z,5.30
2023-04-15T17:24:23.280Z,5.72
2023-04-15T17:27:12.299Z,4.00
2023-04-15T17:30:11.502Z,3.85
2023-04-15T17:33:26.201Z,4.32
2023-04-15T17:36:23.422Z,3.25
2023-04-15T17:39:18.272Z,2.53
2023-04-15T17:42:07.187Z,3.25
2023-04-15T17:44:56.019Z,4.78
2023-04-15T17:47:43.510Z,4.50
2023-04-15T17:50:31.869Z,5.18
2023-04-15T17:53:21.058Z,2.97
2023-04-15T17:56:10.936Z,4.55
2023-04-15T17:59:16.057Z,3.83
2023-04-15T18:02:03.709Z,2.38
2023-04-15T18:04:51.169Z,4.90
2023-04-15T18:07:38.799Z,2.55
2023-04-15T18:10:26.580Z,4.20
2023-04-15T18:13:14.171Z,2.35
2023-04-15T18:16:05.283Z,3.05
2023-04-15T18:22:07.144Z,3.67
2023-04-15T18:24:55.091Z,3.92
2023-04-15T18:27:42.772Z,5.72
2023-04-15T18:30:30.763Z,3.60
2023-04-15T18:33:20.648Z,5.22
2023-04-15T18:36:08.808Z,3.92
2023-04-15T18:38:58.953Z,5.20
2023-04-15T18:41:46.918Z,4.90
2023-04-15T18:44:34.652Z,5.15
2023-04-15T18:47:22.198Z,6.78
2023-04-15T18:50:09.834Z,6.88
2023-04-15T18:52:58.475Z,4.28
2023-04-15T18:55:46.703Z,4.93
2023-04-15T18:59:19.060Z,7.18
2023-04-15T19:01:41.933Z,5.22
2023-04-15T19:04:29.578Z,6.47
2023-04-15T19:07:19.813Z,5.03
2023-04-15T19:10:08.300Z,4.47
2023-04-15T19:12:55.902Z,4.82
2023-04-15T19:15:43.104Z,2.95
2023-04-15T19:18:30.431Z,1.98
2023-04-15T19:21:17.885Z,1.85
2023-04-15T19:24:05.884Z,4.07
2023-04-15T19:26:53.166Z,4.30
2023-04-15T19:29:45.257Z,4.22
2023-04-15T19:32:34.611Z,3.30
2023-04-15T19:35:23.286Z,2.63
2023-04-15T19:38:12.131Z,2.40
2023-04-15T19:41:05.105Z,2.15
2023-04-15T19:44:00.260Z,3.38
2023-04-15T19:46:50.485Z,5.28
2023-04-15T19:49:40.401Z,5.72
2023-04-15T19:52:30.424Z,5.60
2023-04-15T19:55:20.709Z,8.10
2023-04-15T19:58:09.243Z,7.47
2023-04-15T20:01:00.660Z,6.55
2023-04-15T20:04:15.711Z,4.57
2023-04-15T20:07:05.951Z,4.70
2023-04-15T20:09:55.181Z,4.80
2023-04-15T20:12:50.394Z,6.38
